Barrow Island Airport

Airport
ICAO code: 
YBWX
IATA Code: 
BWB
Summary
ICAO Region: 
APAC
Territory: 
Location: 
Barrow Island, Western Australia
Serving: 
Barrow Island
Elevation: 
26 ft
Coordinates: 
Aerial View: 
20° 47' 52.8" S, 115° 24' 21.6" E
Metar
Observation
YBWX 011900Z AUTO 22023KT //// // ////// 24/22 Q1007
Station
Barrow Island Airport
Date/Time
2021-12-01 19:00:00
Wind direction
220°
Wind speed
23 kts
Lowest cloud amount
n/a
Temperature
24°C
Dew point
22°C
Humidity
88%
QNH
1007 hPa
Weather condition
n/a

Runways

Designator Length Width Surface Rops
3/21 1900 30 ASP No/No
Airport map: 
Aerial View: 

SKYbrary Partners:

Safety knowledge contributed by: